createdAt,value
2019-03-20T00:02:59.650Z,-2.10
2019-03-20T00:08:03.774Z,-2.20
2019-03-20T00:13:07.676Z,-2.20
2019-03-20T00:18:11.382Z,-2.00
2019-03-20T00:23:15.213Z,-1.90
2019-03-20T00:28:19.018Z,-2.00
2019-03-20T00:33:22.731Z,-2.10
2019-03-20T00:38:26.459Z,-2.20
2019-03-20T00:43:30.192Z,-2.30
2019-03-20T00:48:34.157Z,-2.20
2019-03-20T00:53:37.876Z,-2.30
2019-03-20T00:58:41.680Z,-2.30
2019-03-20T01:03:45.639Z,-2.30
2019-03-20T01:08:50.106Z,-2.30
2019-03-20T01:13:53.834Z,-2.30
2019-03-20T01:18:57.550Z,-2.30
2019-03-20T01:24:01.251Z,-2.40
2019-03-20T01:29:04.980Z,-2.50
2019-03-20T01:34:09.226Z,-2.60
2019-03-20T01:39:12.947Z,-2.80
2019-03-20T01:44:16.664Z,-2.60
2019-03-20T01:49:20.662Z,-2.60
2019-03-20T01:54:24.383Z,-2.50
2019-03-20T01:59:28.095Z,-2.60
2019-03-20T02:04:31.892Z,-2.80
2019-03-20T02:09:35.631Z,-3.10
2019-03-20T02:14:39.347Z,-3.20
2019-03-20T02:19:43.056Z,-3.20
2019-03-20T02:24:46.775Z,-3.10
2019-03-20T02:29:51.130Z,-2.90
2019-03-20T02:34:54.874Z,-2.90
2019-03-20T02:39:58.863Z,-2.90
2019-03-20T02:45:02.663Z,-2.80
2019-03-20T02:50:06.674Z,-2.80
2019-03-20T02:55:10.852Z,-2.80
2019-03-20T03:00:14.711Z,-2.80
2019-03-20T03:05:18.671Z,-3.00
2019-03-20T03:10:22.441Z,-3.00
2019-03-20T03:15:26.149Z,-2.90
2019-03-20T03:20:29.866Z,-3.40
2019-03-20T03:25:33.559Z,-2.90
2019-03-20T03:30:37.259Z,-2.90
2019-03-20T03:35:40.991Z,-2.90
2019-03-20T03:40:44.870Z,-2.90
2019-03-20T03:45:48.596Z,-2.90
2019-03-20T03:50:52.348Z,-2.90
2019-03-20T03:55:56.068Z,-3.00
2019-03-20T04:00:59.836Z,-3.20
2019-03-20T04:06:03.686Z,-3.00
2019-03-20T04:11:07.395Z,-2.80
2019-03-20T04:16:11.087Z,-2.70
2019-03-20T04:21:14.772Z,-2.60
2019-03-20T04:26:18.472Z,-2.50
2019-03-20T04:31:22.558Z,-2.50
2019-03-20T04:36:26.287Z,-2.40
2019-03-20T04:41:29.983Z,-2.30
2019-03-20T04:46:33.752Z,-2.40
2019-03-20T04:51:37.639Z,-2.60
2019-03-20T04:56:41.372Z,-2.60
2019-03-20T05:01:45.374Z,-2.60
2019-03-20T05:06:58.200Z,-2.40
2019-03-20T05:11:55.274Z,-2.40
2019-03-20T05:16:59.057Z,-2.30
2019-03-20T05:22:02.781Z,-2.30
2019-03-20T05:27:06.542Z,-2.20
2019-03-20T05:32:10.242Z,-2.10
2019-03-20T05:37:14.314Z,-2.00
2019-03-20T05:42:18.105Z,-2.00
2019-03-20T05:47:22.043Z,-1.90
2019-03-20T05:52:25.773Z,-1.90
2019-03-20T05:57:29.514Z,-1.80
2019-03-20T06:02:33.253Z,-1.70
2019-03-20T06:07:37.028Z,-1.50
2019-03-20T06:12:41.043Z,-1.20
2019-03-20T06:17:46.854Z,1.00
2019-03-20T06:22:50.281Z,3.10
2019-03-20T06:27:53.989Z,4.20
2019-03-20T06:32:59.777Z,4.80
2019-03-20T06:38:03.175Z,5.00
2019-03-20T06:43:06.938Z,5.00
2019-03-20T06:48:10.669Z,4.80
2019-03-20T06:53:14.650Z,4.40
2019-03-20T06:58:18.376Z,3.90
2019-03-20T07:03:29.630Z,3.70
2019-03-20T07:08:37.088Z,3.60
2019-03-20T07:13:41.054Z,3.70
2019-03-20T07:18:44.843Z,3.70
2019-03-20T07:23:48.837Z,3.90
2019-03-20T07:28:52.551Z,4.20
2019-03-20T07:33:56.245Z,4.40
2019-03-20T07:39:00.302Z,4.70
2019-03-20T07:44:04.187Z,4.90
2019-03-20T07:49:07.891Z,5.20
2019-03-20T07:54:12.022Z,5.50
2019-03-20T07:59:15.727Z,5.80
2019-03-20T08:04:19.477Z,6.30
2019-03-20T08:09:25.569Z,6.50
2019-03-20T08:14:28.610Z,7.00
2019-03-20T08:19:32.319Z,7.30
2019-03-20T08:24:36.022Z,7.40
2019-03-20T08:29:39.732Z,7.60
2019-03-20T08:34:43.449Z,7.80
2019-03-20T08:39:47.174Z,8.00
2019-03-20T08:44:51.133Z,8.00
2019-03-20T08:49:54.834Z,7.80
2019-03-20T08:54:58.537Z,8.40
2019-03-20T09:00:02.249Z,8.60
2019-03-20T09:05:07.540Z,8.90
2019-03-20T09:10:13.825Z,9.40
2019-03-20T09:15:17.689Z,9.70
2019-03-20T09:20:21.398Z,9.90
2019-03-20T09:25:25.125Z,10.00
2019-03-20T09:30:28.889Z,10.20
2019-03-20T09:35:32.610Z,10.50
2019-03-20T09:40:36.343Z,10.60
2019-03-20T09:45:40.321Z,10.40
2019-03-20T09:50:44.040Z,10.30
2019-03-20T09:55:47.801Z,10.80
2019-03-20T10:00:51.521Z,10.90
2019-03-20T10:05:55.495Z,11.40
2019-03-20T10:10:59.222Z,11.90
2019-03-20T10:16:02.959Z,11.70
2019-03-20T10:21:06.664Z,12.00
2019-03-20T10:26:10.366Z,12.30
2019-03-20T10:31:14.090Z,12.50
2019-03-20T10:36:17.825Z,12.60
2019-03-20T10:41:21.555Z,12.20
2019-03-20T10:46:25.298Z,12.40
2019-03-20T10:51:29.118Z,12.30
2019-03-20T10:56:32.877Z,11.50
2019-03-20T11:01:42.636Z,11.60
2019-03-20T11:06:42.272Z,11.60
2019-03-20T11:11:46.074Z,12.00
2019-03-20T11:16:49.834Z,11.60
2019-03-20T11:21:53.795Z,11.50
2019-03-20T11:26:57.778Z,12.00
2019-03-20T11:32:02.311Z,12.70
2019-03-20T11:37:06.116Z,12.70
2019-03-20T11:42:10.164Z,12.50
2019-03-20T11:47:13.900Z,12.50
2019-03-20T11:52:17.912Z,12.30
2019-03-20T11:57:21.813Z,12.10
2019-03-20T12:02:28.474Z,12.20
2019-03-20T12:07:31.078Z,12.50
2019-03-20T12:12:34.812Z,12.20
2019-03-20T12:17:38.672Z,12.20
2019-03-20T12:22:42.418Z,12.50
2019-03-20T12:27:46.225Z,12.70
2019-03-20T12:32:50.093Z,12.70
2019-03-20T12:37:53.906Z,12.90
2019-03-20T12:42:57.866Z,13.00
2019-03-20T12:48:01.661Z,12.70
2019-03-20T12:53:05.893Z,12.70
2019-03-20T12:58:09.681Z,12.30
2019-03-20T13:08:17.142Z,11.90
2019-03-20T13:13:20.862Z,12.00
2019-03-20T13:38:39.460Z,12.40
2019-03-20T14:14:03.928Z,12.00
2019-03-20T14:34:18.314Z,11.60
2019-03-20T14:44:25.637Z,11.70
2019-03-20T14:49:29.490Z,11.80
2019-03-20T15:09:43.666Z,11.80
2019-03-20T15:29:58.346Z,12.00
2019-03-20T15:35:02.579Z,11.80
2019-03-20T16:05:26.998Z,11.60
2019-03-20T16:20:38.052Z,11.30
2019-03-20T16:35:48.950Z,11.30
2019-03-20T17:16:17.124Z,10.90
2019-03-20T17:31:27.809Z,10.80
2019-03-20T17:36:31.573Z,10.60
2019-03-20T17:41:36.820Z,10.60
2019-03-20T17:46:40.946Z,10.60
2019-03-20T18:06:55.082Z,10.50
2019-03-20T18:11:59.024Z,10.40
2019-03-20T18:17:02.833Z,10.40
2019-03-20T18:37:16.740Z,10.40
2019-03-20T19:02:34.153Z,10.20
2019-03-20T19:07:38.163Z,10.20
2019-03-20T19:12:42.487Z,10.20
2019-03-20T19:22:49.776Z,10.00
2019-03-20T19:27:53.656Z,10.00
2019-03-20T20:13:27.892Z,9.80
2019-03-20T20:23:36.068Z,9.70
2019-03-20T20:33:43.102Z,9.60
2019-03-20T20:48:53.774Z,9.50
2019-03-20T20:53:57.740Z,9.60
2019-03-20T21:04:06.094Z,9.60
2019-03-20T21:09:09.910Z,9.50
2019-03-20T21:19:36.143Z,9.10
2019-03-20T21:35:48.550Z,8.90
2019-03-20T22:07:22.866Z,9.10
2019-03-20T22:12:31.137Z,9.10
2019-03-20T22:18:08.951Z,9.10
2019-03-20T22:34:32.972Z,9.00
2019-03-20T23:01:11.252Z,8.80
2019-03-20T23:06:15.513Z,8.80
2019-03-20T23:11:19.767Z,8.80
2019-03-20T23:16:24.110Z,8.80
2019-03-20T23:21:28.545Z,8.80
2019-03-20T23:26:32.869Z,8.80
2019-03-20T23:31:37.746Z,8.70
2019-03-20T23:36:41.973Z,8.80
2019-03-20T23:41:46.377Z,8.80
